Time,TemperatureF,DewpointF,PressureIn,WindDirection,WindDirectionDegrees,WindSpeedMPH,WindSpeedGustMPH,Humidity,HourlyPrecipIn,Conditions,Clouds,dailyrainin,SolarRadiationWatts/m^2,SoftwareType,DateUTC
2013-04-25 00:00:00,67.9,61.0,30.12,ESE,107,0.0,0.0,79,0.00,,,0.01,0,weatherlink.com 1.10,2013-04-25 04:00:00,
2013-04-25 00:15:00,67.3,61.0,30.12,ESE,109,0.0,0.0,80,0.00,,,0.00,0,weatherlink.com 1.10,2013-04-25 04:15:00,
2013-04-25 00:30:00,66.8,61.0,30.11,ESE,107,0.0,0.0,81,0.00,,,0.00,0,weatherlink.com 1.10,2013-04-25 04:30:00,
2013-04-25 00:45:00,66.5,61.0,30.11,ESE,107,0.0,0.0,82,0.00,,,0.00,0,weatherlink.com 1.10,2013-04-25 04:45:00,
2013-04-25 01:00:00,66.1,61.0,30.10,ESE,109,0.0,0.0,84,0.00,,,0.00,0,weatherlink.com 1.10,2013-04-25 05:00:00,
2013-04-25 01:15:00,65.8,61.0,30.10,ESE,107,0.0,0.0,84,0.00,,,0.00,0,weatherlink.com 1.10,2013-04-25 05:15:00,
2013-04-25 01:30:00,65.3,61.0,30.09,ESE,107,0.0,0.0,85,0.00,,,0.00,0,weatherlink.com 1.10,2013-04-25 05:30:00,
2013-04-25 01:45:00,65.0,61.0,30.09,ESE,107,0.0,0.0,86,0.00,,,0.00,0,weatherlink.com 1.10,2013-04-25 05:45:00,
2013-04-25 02:01:00,64.7,61.0,30.09,ESE,109,0.0,0.0,86,0.00,,,0.00,0,weatherlink.com 1.10,2013-04-25 06:01:00,
2013-04-25 02:16:00,64.5,61.0,30.09,ESE,108,0.0,0.0,87,0.00,,,0.00,0,weatherlink.com 1.10,2013-04-25 06:16:00,
2013-04-25 02:31:00,64.6,61.0,30.09,ESE,109,0.0,0.0,88,0.00,,,0.00,0,weatherlink.com 1.10,2013-04-25 06:31:00,
2013-04-25 02:46:00,64.5,61.0,30.08,ESE,109,0.0,0.0,89,0.00,,,0.00,0,weatherlink.com 1.10,2013-04-25 06:46:00,
2013-04-25 03:01:00,64.1,61.0,30.08,ESE,108,0.0,0.0,88,0.00,,,0.00,0,weatherlink.com 1.10,2013-04-25 07:01:00,
2013-04-25 03:16:00,64.1,61.0,30.09,ESE,108,0.0,0.0,89,0.00,,,0.00,0,weatherlink.com 1.10,2013-04-25 07:16:00,
2013-04-25 03:31:00,64.0,61.0,30.09,ESE,109,0.0,0.0,90,0.00,,,0.00,0,weatherlink.com 1.10,2013-04-25 07:31:00,
2013-04-25 03:46:00,63.6,60.0,30.09,ESE,109,0.0,0.0,89,0.00,,,0.00,0,weatherlink.com 1.10,2013-04-25 07:46:00,
2013-04-25 04:01:00,63.9,61.0,30.09,ESE,108,0.0,0.0,90,0.00,,,0.00,0,weatherlink.com 1.10,2013-04-25 08:01:00,
2013-04-25 04:16:00,63.9,61.0,30.09,ESE,107,0.0,0.0,90,0.00,,,0.00,0,weatherlink.com 1.10,2013-04-25 08:16:00,
2013-04-25 04:31:00,63.5,61.0,30.10,ESE,107,0.0,0.0,90,0.00,,,0.00,0,weatherlink.com 1.10,2013-04-25 08:31:00,
2013-04-25 04:46:00,63.3,60.0,30.10,ESE,107,0.0,0.0,90,0.00,,,0.00,0,weatherlink.com 1.10,2013-04-25 08:46:00,
2013-04-25 05:01:00,63.0,60.0,30.10,ESE,107,0.0,0.0,91,0.00,,,0.00,0,weatherlink.com 1.10,2013-04-25 09:01:00,
2013-04-25 05:16:00,62.9,60.0,30.10,ESE,108,0.0,0.0,91,0.00,,,0.00,0,weatherlink.com 1.10,2013-04-25 09:16:00,
2013-04-25 05:31:00,62.8,60.0,30.11,ESE,108,0.0,0.0,91,0.00,,,0.00,0,weatherlink.com 1.10,2013-04-25 09:31:00,
2013-04-25 05:46:00,62.8,60.0,30.11,ESE,108,0.0,0.0,91,0.00,,,0.00,0,weatherlink.com 1.10,2013-04-25 09:46:00,
2013-04-25 06:01:00,62.9,61.0,30.11,ESE,108,0.0,0.0,92,0.00,,,0.00,0,weatherlink.com 1.10,2013-04-25 10:01:00,
2013-04-25 06:16:00,62.8,61.0,30.11,ESE,108,0.0,0.0,92,0.00,,,0.00,0,weatherlink.com 1.10,2013-04-25 10:16:00,
2013-04-25 06:31:00,62.5,60.0,30.12,ESE,107,0.0,0.0,92,0.00,,,0.00,0,weatherlink.com 1.10,2013-04-25 10:31:00,
2013-04-25 06:46:00,62.3,60.0,30.12,ESE,107,0.0,0.0,92,0.00,,,0.00,0,weatherlink.com 1.10,2013-04-25 10:46:00,
2013-04-25 07:01:00,62.4,60.0,30.12,ESE,107,0.0,0.0,92,0.00,,,0.00,14,weatherlink.com 1.10,2013-04-25 11:01:00,
2013-04-25 07:12:00,62.5,60.1,30.13,ESE,108,0.0,0.0,92,0.00,,,0.00,28,Wunderground v.1.15,2013-04-25 11:12:00,
2013-04-25 07:31:00,63.5,62.0,30.14,ESE,107,0.0,0.0,93,0.00,,,0.00,47,weatherlink.com 1.10,2013-04-25 11:31:00,
2013-04-25 07:46:00,64.5,63.0,30.14,ESE,109,0.0,0.0,93,0.00,,,0.00,123,weatherlink.com 1.10,2013-04-25 11:46:00,
2013-04-25 08:02:00,65.8,64.0,30.14,ESE,108,0.0,1.0,93,0.00,,,0.00,169,weatherlink.com 1.10,2013-04-25 12:02:00,
2013-04-25 08:17:00,67.4,65.0,30.15,ESE,109,0.0,2.0,92,0.00,,,0.00,220,weatherlink.com 1.10,2013-04-25 12:17:00,
2013-04-25 08:32:00,69.4,65.0,30.15,SE,133,2.0,3.0,87,0.00,,,0.00,276,weatherlink.com 1.10,2013-04-25 12:32:00,
2013-04-25 08:47:00,71.2,65.0,30.15,SSE,159,1.0,4.0,80,0.00,,,0.00,341,weatherlink.com 1.10,2013-04-25 12:47:00,
2013-04-25 09:02:00,72.6,65.0,30.15,SSW,194,0.0,4.0,77,0.00,,,0.00,394,weatherlink.com 1.10,2013-04-25 13:02:00,
2013-04-25 09:17:00,74.1,65.0,30.16,ESE,115,2.0,7.0,72,0.00,,,0.00,443,weatherlink.com 1.10,2013-04-25 13:17:00,
2013-04-25 09:32:00,74.9,64.0,30.16,South,171,0.0,6.0,69,0.00,,,0.00,504,weatherlink.com 1.10,2013-04-25 13:32:00,
2013-04-25 09:47:00,75.7,64.0,30.16,WSW,250,0.0,6.0,68,0.00,,,0.00,548,weatherlink.com 1.10,2013-04-25 13:47:00,
2013-04-25 10:02:00,76.7,64.0,30.17,South,186,0.0,7.0,65,0.00,,,0.00,566,weatherlink.com 1.10,2013-04-25 14:02:00,
2013-04-25 10:17:00,77.4,63.0,30.17,SSE,153,3.0,5.0,62,0.00,,,0.00,652,weatherlink.com 1.10,2013-04-25 14:17:00,
2013-04-25 10:32:00,78.1,64.0,30.17,SW,236,3.0,4.0,62,0.00,,,0.00,693,weatherlink.com 1.10,2013-04-25 14:32:00,
2013-04-25 10:47:00,78.9,63.0,30.17,SSW,207,0.0,5.0,59,0.00,,,0.00,789,weatherlink.com 1.10,2013-04-25 14:47:00,
2013-04-25 11:02:00,79.4,63.0,30.18,WSW,238,0.0,7.0,58,0.00,,,0.00,531,weatherlink.com 1.10,2013-04-25 15:02:00,
2013-04-25 11:17:00,80.0,61.0,30.18,SW,223,0.0,5.0,53,0.00,,,0.00,858,weatherlink.com 1.10,2013-04-25 15:17:00,
2013-04-25 11:32:00,81.0,62.0,30.18,SW,219,0.0,5.0,53,0.00,,,0.00,738,weatherlink.com 1.10,2013-04-25 15:32:00,
2013-04-25 11:48:00,81.2,60.0,30.18,West,261,0.0,2.0,49,0.00,,,0.00,378,weatherlink.com 1.10,2013-04-25 15:48:00,
2013-04-25 12:03:00,81.9,62.0,30.18,NW,326,2.0,4.0,51,0.00,,,0.00,875,weatherlink.com 1.10,2013-04-25 16:03:00,
2013-04-25 12:18:00,82.5,61.0,30.18,West,280,3.0,4.0,49,0.00,,,0.00,1009,weatherlink.com 1.10,2013-04-25 16:18:00,
2013-04-25 12:33:00,81.9,61.0,30.18,West,268,0.0,4.0,50,0.00,,,0.00,851,weatherlink.com 1.10,2013-04-25 16:33:00,
2013-04-25 12:48:00,83.0,61.0,30.17,West,276,3.0,6.0,48,0.00,,,0.00,1051,weatherlink.com 1.10,2013-04-25 16:48:00,
2013-04-25 13:03:00,83.3,62.0,30.17,WNW,294,2.0,5.0,49,0.00,,,0.00,1065,weatherlink.com 1.10,2013-04-25 17:03:00,
2013-04-25 13:18:00,83.0,61.0,30.17,SW,233,0.0,6.0,48,0.00,,,0.00,1106,weatherlink.com 1.10,2013-04-25 17:18:00,
2013-04-25 13:33:00,84.2,62.0,30.16,SW,236,2.0,3.0,47,0.00,,,0.00,1076,weatherlink.com 1.10,2013-04-25 17:33:00,
2013-04-25 13:48:00,83.4,60.0,30.15,North,11,2.0,5.0,46,0.00,,,0.00,1078,weatherlink.com 1.10,2013-04-25 17:48:00,
2013-04-25 14:03:00,84.5,60.0,30.15,West,259,0.0,5.0,44,0.00,,,0.00,990,weatherlink.com 1.10,2013-04-25 18:03:00,
2013-04-25 14:18:00,85.5,60.0,30.15,WSW,246,0.0,5.0,43,0.00,,,0.00,983,weatherlink.com 1.10,2013-04-25 18:18:00,
2013-04-25 14:33:00,86.2,61.0,30.14,WSW,246,0.0,5.0,43,0.00,,,0.00,1004,weatherlink.com 1.10,2013-04-25 18:33:00,
2013-04-25 14:48:00,86.1,60.0,30.14,West,279,0.0,4.0,42,0.00,,,0.00,949,weatherlink.com 1.10,2013-04-25 18:48:00,
2013-04-25 15:03:00,86.1,60.0,30.13,WSW,240,2.0,6.0,41,0.00,,,0.00,939,weatherlink.com 1.10,2013-04-25 19:03:00,
2013-04-25 15:18:00,87.5,60.0,30.13,South,182,4.0,5.0,39,0.00,,,0.00,895,weatherlink.com 1.10,2013-04-25 19:18:00,
2013-04-25 15:33:00,87.1,61.0,30.12,South,180,6.0,6.0,41,0.00,,,0.00,888,weatherlink.com 1.10,2013-04-25 19:33:00,
2013-04-25 15:48:00,86.5,59.0,30.12,South,181,0.0,5.0,40,0.00,,,0.00,872,weatherlink.com 1.10,2013-04-25 19:48:00,
2013-04-25 16:03:00,86.4,59.0,30.11,SSE,168,2.0,7.0,40,0.00,,,0.00,179,weatherlink.com 1.10,2013-04-25 20:03:00,
2013-04-25 16:18:00,86.9,61.0,30.11,WSW,252,1.0,5.0,42,0.00,,,0.00,796,weatherlink.com 1.10,2013-04-25 20:18:00,
2013-04-25 16:33:00,88.1,59.0,30.11,WSW,257,0.0,4.0,38,0.00,,,0.00,742,weatherlink.com 1.10,2013-04-25 20:33:00,
2013-04-25 16:48:00,87.3,59.0,30.10,NE,38,0.0,3.0,38,0.00,,,0.00,698,weatherlink.com 1.10,2013-04-25 20:48:00,
2013-04-25 17:03:00,86.5,60.0,30.09,North,355,4.0,5.0,41,0.00,,,0.00,594,weatherlink.com 1.10,2013-04-25 21:03:00,
2013-04-25 17:18:00,86.3,59.0,30.09,East,101,1.0,3.0,39,0.00,,,0.00,418,weatherlink.com 1.10,2013-04-25 21:18:00,
2013-04-25 17:33:00,86.1,58.0,30.10,NE,41,0.0,4.0,39,0.00,,,0.00,204,weatherlink.com 1.10,2013-04-25 21:33:00,
2013-04-25 17:48:00,85.9,58.0,30.10,SE,127,3.0,3.0,39,0.00,,,0.00,445,weatherlink.com 1.10,2013-04-25 21:48:00,
2013-04-25 18:03:00,85.5,58.0,30.10,East,83,0.0,4.0,39,0.00,,,0.00,107,weatherlink.com 1.10,2013-04-25 22:03:00,
2013-04-25 18:18:00,85.1,58.0,30.10,ESE,107,0.0,2.0,40,0.00,,,0.00,142,weatherlink.com 1.10,2013-04-25 22:18:00,
2013-04-25 18:33:00,84.7,63.0,30.10,East,99,3.0,8.0,48,0.00,,,0.00,49,weatherlink.com 1.10,2013-04-25 22:33:00,
2013-04-25 18:48:00,82.7,64.0,30.11,SSE,162,4.0,7.0,54,0.00,,,0.00,67,weatherlink.com 1.10,2013-04-25 22:48:00,
2013-04-25 19:03:00,81.3,64.0,30.11,SE,144,4.0,9.0,56,0.00,,,0.00,77,weatherlink.com 1.10,2013-04-25 23:03:00,
2013-04-25 19:18:00,80.8,64.0,30.11,SSE,161,0.0,8.0,57,0.00,,,0.00,63,weatherlink.com 1.10,2013-04-25 23:18:00,
2013-04-25 19:33:00,80.2,63.0,30.11,SSE,149,1.0,8.0,57,0.00,,,0.00,30,weatherlink.com 1.10,2013-04-25 23:33:00,
2013-04-25 19:48:00,78.9,63.0,30.12,SE,133,0.0,5.0,58,0.00,,,0.00,12,weatherlink.com 1.10,2013-04-25 23:48:00,
2013-04-25 20:03:00,78.1,62.0,30.13,ESE,123,0.0,7.0,58,0.00,,,0.00,0,weatherlink.com 1.10,2013-04-26 00:03:00,
2013-04-25 20:18:00,77.4,62.0,30.13,SSE,153,0.0,7.0,59,0.00,,,0.00,0,weatherlink.com 1.10,2013-04-26 00:18:00,
2013-04-25 20:33:00,76.6,62.0,30.14,SSE,160,1.0,8.0,60,0.00,,,0.00,0,weatherlink.com 1.10,2013-04-26 00:33:00,
2013-04-25 20:48:00,76.0,62.0,30.14,East,88,1.0,6.0,62,0.00,,,0.00,0,weatherlink.com 1.10,2013-04-26 00:48:00,
2013-04-25 21:03:00,75.4,62.0,30.15,SE,144,1.0,5.0,64,0.00,,,0.00,0,weatherlink.com 1.10,2013-04-26 01:03:00,
2013-04-25 21:18:00,75.0,62.0,30.15,SE,138,10.0,13.0,65,0.00,,,0.00,0,weatherlink.com 1.10,2013-04-26 01:18:00,
2013-04-25 21:33:00,74.5,62.0,30.16,East,86,0.0,4.0,66,0.00,,,0.00,0,weatherlink.com 1.10,2013-04-26 01:33:00,
2013-04-25 21:48:00,74.1,62.0,30.17,East,96,0.0,6.0,67,0.00,,,0.00,0,weatherlink.com 1.10,2013-04-26 01:48:00,
2013-04-25 22:03:00,73.8,63.0,30.18,SE,142,2.0,5.0,68,0.00,,,0.00,0,weatherlink.com 1.10,2013-04-26 02:03:00,
2013-04-25 22:18:00,73.5,63.0,30.18,SSE,154,0.0,1.0,69,0.00,,,0.00,0,weatherlink.com 1.10,2013-04-26 02:18:00,
2013-04-25 22:33:00,73.0,62.0,30.18,SSE,154,0.0,1.0,69,0.00,,,0.00,0,weatherlink.com 1.10,2013-04-26 02:33:00,
2013-04-25 22:48:00,72.9,63.0,30.19,SSE,153,0.0,2.0,71,0.00,,,0.00,0,weatherlink.com 1.10,2013-04-26 02:48:00,
2013-04-25 23:03:00,72.5,63.0,30.19,SSE,154,0.0,1.0,72,0.00,,,0.00,0,weatherlink.com 1.10,2013-04-26 03:03:00,
2013-04-25 23:18:00,71.9,63.0,30.19,SSE,153,0.0,0.0,73,0.00,,,0.00,0,weatherlink.com 1.10,2013-04-26 03:18:00,
2013-04-25 23:33:00,71.3,63.0,30.19,SSE,153,0.0,0.0,74,0.00,,,0.00,0,weatherlink.com 1.10,2013-04-26 03:33:00,
2013-04-25 23:48:00,70.7,62.0,30.19,SSE,153,0.0,0.0,75,0.00,,,0.00,0,weatherlink.com 1.10,2013-04-26 03:48:00,